Time;durP1;ratioP1;P1;durP2;ratioP2;P2;SDS_P1;SDS_P2;PMS_P1;PMS_P2;Temp;Humidity;BMP_temperature;BMP_pressure;BME280_temperature;BME280_humidity;BME280_pressure;Samples;Min_cycle;Max_cycle;Signal;HPM_P1;HPM_P2
2022/01/30 00:01:56;;;;;;;80.82;34.13;;;;;;;-2.49;72.10;98458.59;5017644;28;20492;-81
2022/01/30 00:04:23;;;;;;;78.78;34.47;;;;;;;-2.45;71.34;98451.91;5020392;28;20053;-80
2022/01/30 00:06:50;;;;;;;74.75;32.33;;;;;;;-2.53;71.54;98454.19;4999979;28;20586;-81
2022/01/30 00:09:20;;;;;;;71.72;32.50;;;;;;;-2.66;71.94;98439.28;5015819;28;20060;-80
2022/01/30 00:11:54;;;;;;;81.57;34.25;;;;;;;-2.66;72.04;98440.97;5015826;28;20058;-79
2022/01/30 00:14:23;;;;;;;74.13;32.05;;;;;;;-2.64;72.10;98437.63;5013933;28;20065;-80
2022/01/30 00:17:00;;;;;;;76.70;32.80;;;;;;;-2.66;71.92;98436.72;5013214;28;20053;-77
2022/01/30 00:19:43;;;;;;;73.10;32.63;;;;;;;-2.83;72.20;98419.97;5013440;28;20160;-81
2022/01/30 00:22:35;;;;;;;83.00;32.78;;;;;;;-2.80;72.35;98438.78;5014241;28;20053;-83
2022/01/30 00:25:07;;;;;;;71.35;30.70;;;;;;;-2.74;72.55;98425.38;5013364;28;20502;-81
2022/01/30 00:27:47;;;;;;;72.45;31.67;;;;;;;-2.69;72.20;98427.25;5012632;28;20481;-80
2022/01/30 00:30:16;;;;;;;76.40;31.50;;;;;;;-2.66;72.09;98420.50;4995628;28;20492;-80
2022/01/30 00:32:43;;;;;;;69.45;30.60;;;;;;;-2.73;72.14;98415.19;4979117;28;20056;-80
2022/01/30 00:35:33;;;;;;;64.30;29.08;;;;;;;-2.76;72.15;98411.66;5014591;28;20058;-84
2022/01/30 00:38:00;;;;;;;69.43;28.95;;;;;;;-2.75;72.94;98416.84;5013872;28;20546;-79
2022/01/30 00:40:34;;;;;;;69.90;28.55;;;;;;;-2.78;72.75;98418.41;5013210;28;20100;-82
2022/01/30 00:43:03;;;;;;;67.70;27.98;;;;;;;-2.84;72.90;98405.44;5013196;28;20064;-82
2022/01/30 00:45:30;;;;;;;62.00;27.10;;;;;;;-2.72;73.04;98399.03;5013071;28;20115;-81
2022/01/30 00:47:57;;;;;;;62.13;26.38;;;;;;;-2.69;72.71;98404.25;5013396;28;20521;-81
2022/01/30 00:50:25;;;;;;;60.25;26.13;;;;;;;-2.76;72.68;98404.00;4995738;28;20092;-81
2022/01/30 00:52:55;;;;;;;62.78;26.38;;;;;;;-2.78;73.18;98395.41;4995692;28;20501;-81
2022/01/30 00:55:24;;;;;;;59.55;26.08;;;;;;;-2.81;73.35;98388.50;5013160;28;20053;-83
2022/01/30 00:57:54;;;;;;;60.15;26.73;;;;;;;-2.84;73.32;98390.94;5013057;28;20529;-83
2022/01/30 01:00:23;;;;;;;62.78;24.50;;;;;;;-2.94;73.63;98360.81;4995736;28;20421;-81
2022/01/30 01:02:50;;;;;;;62.90;27.05;;;;;;;-2.81;73.21;98377.44;4996600;28;20054;-80
2022/01/30 01:05:18;;;;;;;55.85;25.38;;;;;;;-2.79;73.58;98369.00;5017696;28;20402;-83
2022/01/30 01:07:48;;;;;;;55.17;25.02;;;;;;;-2.84;73.61;98356.88;5013437;28;20449;-82
2022/01/30 01:10:29;;;;;;;55.10;24.58;;;;;;;-2.81;73.67;98357.84;4980149;28;20058;-83
2022/01/30 01:23:45;;;;;;;49.45;22.40;;;;;;;-2.58;73.47;98339.78;5038822;28;20034;-79
2022/01/30 01:26:13;;;;;;;49.10;21.60;;;;;;;-2.55;73.01;98337.34;5033434;28;20577;-80
2022/01/30 01:28:40;;;;;;;50.72;21.70;;;;;;;-2.69;73.30;98303.66;5017134;28;20319;-80
2022/01/30 01:31:07;;;;;;;51.92;21.75;;;;;;;-2.52;73.29;98319.53;5016936;28;20260;-81
2022/01/30 01:33:55;;;;;;;52.58;21.38;;;;;;;-2.67;73.13;98304.59;4999458;28;20088;-82
2022/01/30 01:36:23;;;;;;;55.47;21.45;;;;;;;-2.73;73.52;98328.28;5016482;28;20123;-81
2022/01/30 01:38:50;;;;;;;51.88;22.20;;;;;;;-2.75;73.41;98327.38;4998429;28;20117;-80
2022/01/30 01:41:20;;;;;;;50.95;22.80;;;;;;;-2.78;73.67;98329.81;4998540;28;20092;-81
2022/01/30 01:43:49;;;;;;;45.80;20.50;;;;;;;-2.79;73.73;98317.00;4999225;28;20050;-81
2022/01/30 01:46:23;;;;;;;50.33;21.52;;;;;;;-2.80;73.62;98317.81;5019262;28;20050;-80
2022/01/30 01:48:52;;;;;;;46.95;21.02;;;;;;;-2.84;73.43;98305.75;5016463;28;20050;-78
2022/01/30 01:51:23;;;;;;;49.85;21.67;;;;;;;-2.91;73.59;98307.25;5039494;28;20045;-77
2022/01/30 01:53:51;;;;;;;;;;;;;;;-3.01;73.59;98306.09;5022080;28;20038;-77
2022/01/30 01:56:19;;;;;;;47.33;21.30;;;;;;;-2.93;73.74;98308.88;5020103;28;19929;-79
2022/01/30 01:59:02;;;;;;;46.55;20.58;;;;;;;-2.86;74.08;98304.84;5018743;28;20050;-79
2022/01/30 02:01:51;;;;;;;44.33;19.02;;;;;;;-3.00;73.52;98289.94;5028787;28;20076;-78
2022/01/30 02:04:20;;;;;;;;;;;;;;;-3.13;73.76;98286.13;5016439;28;20077;-79
2022/01/30 02:06:59;;;;;;;49.83;21.33;;;;;;;-3.18;74.14;98284.25;4997567;28;19979;-79
2022/01/30 02:09:30;;;;;;;49.97;21.42;;;;;;;-3.05;74.14;98298.25;4982357;28;20057;-79
2022/01/30 02:11:57;;;;;;;46.67;19.80;;;;;;;-2.98;74.01;98295.97;5015132;28;20153;-79
2022/01/30 02:14:43;;;;;;;44.85;21.42;;;;;;;-2.96;73.85;98284.09;4983897;28;20046;-80
2022/01/30 02:25:38;;;;;;;47.92;21.10;;;;;;;-2.86;73.57;98274.16;4997197;28;20046;-80
2022/01/30 02:28:13;;;;;;;43.83;19.35;;;;;;;-2.82;73.50;98273.44;5015212;28;20062;-80
2022/01/30 02:30:46;;;;;;;46.35;21.58;;;;;;;-2.97;73.48;98259.41;4997243;28;20068;-79
2022/01/30 02:33:14;;;;;;;42.97;18.80;;;;;;;-3.05;73.40;98242.06;4997150;28;20096;-79
2022/01/30 02:35:40;;;;;;;48.95;21.17;;;;;;;-3.00;73.78;98279.72;5014411;28;20085;-80
2022/01/30 02:38:07;;;;;;;45.60;20.45;;;;;;;-3.03;74.00;98266.88;5014537;28;20050;-80
2022/01/30 02:40:39;;;;;;;43.58;20.42;;;;;;;-3.02;73.80;98265.16;5014398;28;20058;-79
2022/01/30 02:43:06;;;;;;;43.90;20.27;;;;;;;-3.10;74.09;98254.69;4996815;28;20172;-79
2022/01/30 02:45:45;;;;;;;40.88;19.85;;;;;;;-3.17;74.36;98247.66;4996886;28;20149;-79
2022/01/30 02:48:19;;;;;;;45.15;19.63;;;;;;;-3.18;74.55;98253.59;5014306;28;20050;-79
2022/01/30 02:53:14;;;;;;;44.17;19.80;;;;;;;-3.05;74.63;98250.63;4996889;28;20061;-78
2022/01/30 02:55:41;;;;;;;40.17;18.77;;;;;;;-3.01;74.53;98232.00;5014222;28;20081;-79
2022/01/30 02:58:08;;;;;;;42.50;19.73;;;;;;;-2.97;74.46;98231.28;4997165;28;20050;-79
2022/01/30 03:00:37;;;;;;;41.45;19.05;;;;;;;-2.98;74.26;98215.91;4996859;28;20132;-79
2022/01/30 03:03:03;;;;;;;45.20;19.92;;;;;;;-3.04;74.48;98224.22;4999075;28;20049;-81
2022/01/30 03:05:31;;;;;;;43.60;19.55;;;;;;;-2.99;74.56;98224.38;4996255;28;20394;-78
2022/01/30 03:07:58;;;;;;;38.88;19.00;;;;;;;-2.92;74.16;98208.44;4996161;28;20049;-79
2022/01/30 03:10:25;;;;;;;42.53;19.63;;;;;;;-2.92;74.68;98210.97;4996466;28;20057;-79
2022/01/30 03:12:53;;;;;;;44.25;19.27;;;;;;;-2.94;74.87;98199.84;5013731;28;20054;-79
2022/01/30 03:15:20;;;;;;;38.20;17.45;;;;;;;-2.86;74.21;98203.50;4996329;28;20140;-80
2022/01/30 03:17:46;;;;;;;41.53;18.38;;;;;;;-2.88;74.58;98197.47;5013675;28;20057;-78
2022/01/30 03:20:14;;;;;;;42.83;18.25;;;;;;;-2.90;74.59;98187.19;4996530;28;20114;-81
2022/01/30 03:22:40;;;;;;;40.15;18.10;;;;;;;-2.88;74.73;98182.16;4996606;28;20049;-79
2022/01/30 03:25:07;;;;;;;36.80;17.25;;;;;;;-2.86;74.74;98183.06;4996136;28;20433;-79
2022/01/30 03:27:52;;;;;;;39.67;16.98;;;;;;;-2.98;74.59;98157.13;5013401;28;20116;-79
2022/01/30 03:30:29;;;;;;;39.25;17.02;;;;;;;-3.00;74.50;98176.66;4996436;28;20192;-80
2022/01/30 03:33:26;;;;;;;38.42;16.85;;;;;;;-2.97;74.65;98182.75;5000294;28;20148;-79
2022/01/30 03:35:54;;;;;;;39.45;17.85;;;;;;;-2.90;74.59;98176.97;4995691;28;20586;-80
2022/01/30 03:38:22;;;;;;;40.28;18.05;;;;;;;-2.86;75.06;98171.94;4995875;28;20050;-80
2022/01/30 03:40:50;;;;;;;42.40;17.73;;;;;;;-2.93;74.62;98170.91;4995627;28;20097;-80
2022/01/30 03:43:18;;;;;;;40.85;18.15;;;;;;;-2.95;74.33;98167.44;4995855;28;20062;-80
2022/01/30 03:45:47;;;;;;;40.17;18.48;;;;;;;-3.07;75.10;98147.50;5012898;28;20050;-79
2022/01/30 03:48:15;;;;;;;42.47;18.48;;;;;;;-3.05;74.78;98160.31;4979696;28;20183;-80
2022/01/30 03:51:00;;;;;;;39.33;18.02;;;;;;;-3.13;75.32;98155.84;4995788;28;20050;-80
2022/01/30 03:53:27;;;;;;;43.95;17.65;;;;;;;-3.10;75.16;98168.72;5013150;28;20064;-79
2022/01/30 03:55:55;;;;;;;39.20;17.58;;;;;;;-3.11;75.41;98163.56;5013162;28;20053;-79
2022/01/30 03:58:31;;;;;;;41.30;17.63;;;;;;;-3.12;75.58;98164.38;5012929;28;20050;-79
2022/01/30 04:01:05;;;;;;;42.00;18.60;;;;;;;-3.08;75.37;98168.75;4996210;28;20073;-80
2022/01/30 04:03:32;;;;;;;40.00;17.67;;;;;;;-3.03;75.26;98158.66;4995774;28;20203;-80
2022/01/30 04:06:00;;;;;;;36.00;15.85;;;;;;;-3.12;75.31;98155.03;4995488;28;20053;-79
2022/01/30 04:08:27;;;;;;;40.75;17.35;;;;;;;-3.14;75.33;98149.03;5013053;28;20054;-79
2022/01/30 04:11:15;;;;;;;38.92;16.83;;;;;;;-3.29;75.54;98128.13;4995653;28;20058;-80
2022/01/30 04:14:15;;;;;;;40.55;17.05;;;;;;;-3.12;75.38;98144.81;4969171;28;20119;-80
2022/01/30 04:17:01;;;;;;;38.20;15.60;;;;;;;-3.11;75.45;98151.66;5012958;28;20050;-79
2022/01/30 04:19:41;;;;;;;35.45;15.98;;;;;;;-3.18;75.31;98139.53;4995230;28;20433;-80
2022/01/30 04:22:23;;;;;;;32.22;14.25;;;;;;;-3.13;75.46;98139.66;5013049;28;20054;-80
2022/01/30 04:25:09;;;;;;;36.72;16.17;;;;;;;-3.11;75.17;98132.91;5013524;28;20058;-79
2022/01/30 04:27:44;;;;;;;35.92;15.30;;;;;;;-3.17;74.97;98125.06;5012529;28;20081;-80
2022/01/30 04:30:38;;;;;;;37.53;15.60;;;;;;;-3.18;75.35;98126.75;4989617;28;20049;-80
2022/01/30 04:33:22;;;;;;;32.67;14.80;;;;;;;-3.23;75.31;98112.97;4979205;28;20064;-80
2022/01/30 04:36:21;;;;;;;33.17;14.30;;;;;;;-3.33;75.49;98108.44;4996843;28;20100;-79
2022/01/30 04:39:32;;;;;;;29.05;12.38;;;;;;;-3.23;75.23;98120.63;4984417;28;20588;-79
2022/01/30 04:57:45;;;;;;;23.23;9.00;;;;;;;-3.15;74.63;98085.97;4998070;28;20141;-80
2022/01/30 05:00:47;;;;;;;21.60;9.25;;;;;;;-3.03;74.56;98107.56;4999296;28;20101;-81
2022/01/30 05:06:19;;;;;;;11.77;5.82;;;;;;;-3.05;73.77;98093.88;4999195;28;20140;-81
2022/01/30 05:09:13;;;;;;;13.07;6.45;;;;;;;-3.05;74.24;98117.78;4999037;28;20081;-81
2022/01/30 05:12:00;;;;;;;15.57;6.75;;;;;;;-3.04;73.94;98114.38;5015683;28;20072;-80
2022/01/30 05:14:44;;;;;;;14.95;7.03;;;;;;;-3.08;73.64;98097.22;4999356;28;20049;-80
2022/01/30 05:17:28;;;;;;;13.38;6.40;;;;;;;-2.98;73.80;98088.16;5016458;28;20061;-79
2022/01/30 05:20:16;;;;;;;14.63;6.78;;;;;;;-2.82;73.65;98108.19;4998642;28;20046;-80
2022/01/30 05:22:52;;;;;;;14.02;6.60;;;;;;;-2.82;73.69;98102.22;4998266;28;20058;-79
2022/01/30 05:25:31;;;;;;;9.63;5.40;;;;;;;-2.85;73.47;98085.13;5000440;28;20054;-80
2022/01/30 05:28:07;;;;;;;10.25;5.15;;;;;;;-2.95;73.43;98101.00;4997997;28;20064;-79
2022/01/30 05:31:06;;;;;;;8.32;4.75;;;;;;;-3.07;73.61;98093.88;5005168;28;20046;-81
2022/01/30 05:34:00;;;;;;;9.00;4.93;;;;;;;-3.17;73.46;98061.22;5012116;28;20532;-81
2022/01/30 05:36:46;;;;;;;11.10;5.18;;;;;;;-3.12;73.54;98086.06;5001057;28;20437;-78
2022/01/30 05:39:31;;;;;;;9.30;5.15;;;;;;;-3.06;73.50;98085.38;5016543;28;20050;-79
2022/01/30 05:42:27;;;;;;;10.00;5.00;;;;;;;-3.03;73.35;98082.91;4998334;28;20060;-80
2022/01/30 05:48:17;;;;;;;6.25;4.15;;;;;;;-3.13;73.29;98068.13;5015597;28;20502;-80
2022/01/30 05:51:18;;;;;;;4.97;3.58;;;;;;;-3.03;72.89;98061.59;4998100;28;20058;-79
2022/01/30 05:53:48;;;;;;;4.63;3.28;;;;;;;-2.97;72.65;98056.66;4997978;28;20077;-79
2022/01/30 05:56:34;;;;;;;6.53;3.40;;;;;;;-3.09;72.79;98050.38;4998072;28;20104;-80
2022/01/30 05:59:11;;;;;;;5.43;3.20;;;;;;;-3.01;72.21;98053.16;4998312;28;20081;-80
2022/01/30 06:01:42;;;;;;;4.57;3.17;;;;;;;-3.02;72.36;98060.78;4997524;28;20064;-81
2022/01/30 06:04:20;;;;;;;6.40;3.65;;;;;;;-3.09;72.12;98047.84;4997990;28;20053;-81
2022/01/30 06:06:52;;;;;;;8.23;4.38;;;;;;;-3.03;72.22;98048.81;4998144;28;20169;-83
2022/01/30 06:09:20;;;;;;;6.55;3.97;;;;;;;-3.07;72.45;98044.47;4997843;28;20065;-79
2022/01/30 06:11:52;;;;;;;9.25;4.20;;;;;;;-2.88;72.57;98060.34;4997901;28;20057;-80
2022/01/30 06:14:22;;;;;;;10.25;4.40;;;;;;;-2.82;72.38;98056.22;4997958;28;20050;-81
2022/01/30 06:16:53;;;;;;;8.80;4.55;;;;;;;-2.85;71.77;98051.03;4997469;28;20545;-79
2022/01/30 06:19:46;;;;;;;8.10;4.40;;;;;;;-2.77;72.24;98064.91;5014831;28;20050;-78
2022/01/30 06:22:32;;;;;;;7.30;3.75;;;;;;;-2.72;71.79;98051.41;4997025;28;20513;-78
2022/01/30 06:25:20;;;;;;;8.00;4.05;;;;;;;-2.82;71.86;98046.00;5000530;28;20072;-80
2022/01/30 06:28:23;;;;;;;6.90;4.20;;;;;;;-2.62;71.69;98039.75;5002144;28;20065;-80
2022/01/30 06:31:09;;;;;;;8.57;4.13;;;;;;;-2.52;71.31;98046.81;5000110;28;20058;-80
2022/01/30 06:33:55;;;;;;;8.00;4.20;;;;;;;-2.55;71.24;98033.94;5016524;28;20057;-79
2022/01/30 06:36:41;;;;;;;6.47;3.88;;;;;;;-2.44;71.02;98035.94;5004845;28;20056;-79
2022/01/30 06:39:35;;;;;;;7.97;4.22;;;;;;;-2.53;71.23;98026.31;4999154;28;20054;-81
2022/01/30 06:42:18;;;;;;;6.25;3.83;;;;;;;-2.48;71.08;98034.97;4981138;28;20065;-81
2022/01/30 06:45:04;;;;;;;7.88;4.50;;;;;;;-2.50;71.36;98034.91;5014649;28;20075;-80
2022/01/30 06:47:51;;;;;;;7.13;4.10;;;;;;;-2.51;71.15;98035.75;4991053;28;20060;-83
2022/01/30 06:50:37;;;;;;;8.18;4.28;;;;;;;-2.41;71.24;98030.88;5015252;28;20049;-83
2022/01/30 06:54:02;;;;;;;7.10;3.97;;;;;;;-2.36;71.11;98031.88;4992394;28;20390;-83
2022/01/30 06:56:48;;;;;;;9.32;4.45;;;;;;;-2.55;71.04;98004.97;5019011;28;20057;-84
2022/01/30 06:59:34;;;;;;;9.30;4.68;;;;;;;-2.30;71.06;98032.03;5032986;28;20081;-82
2022/01/30 07:02:22;;;;;;;8.48;4.30;;;;;;;-2.35;70.86;98039.56;5016527;28;20571;-82
2022/01/30 07:05:24;;;;;;;8.82;5.00;;;;;;;-2.46;71.02;98012.88;4996661;28;20061;-84
2022/01/30 07:08:12;;;;;;;8.15;4.38;;;;;;;-2.41;71.04;98029.22;5017176;28;20081;-80
2022/01/30 07:10:41;;;;;;;8.10;5.00;;;;;;;-2.34;70.91;98032.78;5017970;28;20062;-80
2022/01/30 07:13:13;;;;;;;9.18;5.15;;;;;;;-2.31;70.51;98025.16;5033182;28;20045;-81
2022/01/30 07:15:41;;;;;;;8.02;4.55;;;;;;;-2.27;70.55;98030.41;5027067;28;20125;-81
2022/01/30 07:18:09;;;;;;;7.35;4.55;;;;;;;-2.37;70.64;98013.09;5015246;28;20052;-81
2022/01/30 07:20:36;;;;;;;8.23;4.93;;;;;;;-2.30;71.20;98014.13;5015028;28;20057;-83
2022/01/30 07:23:03;;;;;;;9.15;4.78;;;;;;;-2.22;70.42;98022.81;4997644;28;20458;-82
2022/01/30 07:25:31;;;;;;;9.23;5.07;;;;;;;-2.24;70.34;98011.69;5017884;28;20141;-80
2022/01/30 07:27:59;;;;;;;7.78;4.60;;;;;;;-2.29;70.75;97988.56;4997211;28;20072;-81
2022/01/30 07:30:26;;;;;;;7.47;4.47;;;;;;;-2.08;70.26;98006.13;4998145;28;20501;-81
2022/01/30 07:32:54;;;;;;;7.70;4.03;;;;;;;-1.94;69.73;98010.69;5015017;28;20080;-81
2022/01/30 07:35:24;;;;;;;7.50;3.70;;;;;;;-1.79;69.85;98010.19;4997570;28;20049;-81
2022/01/30 07:37:53;;;;;;;6.55;3.45;;;;;;;-1.72;69.22;98014.59;5016665;28;20064;-83
2022/01/30 07:40:21;;;;;;;4.97;3.40;;;;;;;-1.86;69.32;97996.38;4981332;28;20054;-80
2022/01/30 07:42:52;;;;;;;5.32;3.40;;;;;;;-1.66;68.74;98010.50;4996712;28;20187;-81
2022/01/30 07:45:24;;;;;;;4.40;3.30;;;;;;;-1.62;68.82;98001.19;5012220;28;20069;-80
2022/01/30 07:47:52;;;;;;;4.97;3.17;;;;;;;-1.57;68.62;98014.97;5017477;28;20060;-89
2022/01/30 07:50:20;;;;;;;3.70;3.00;;;;;;;-1.63;68.44;97996.91;5017009;28;20069;-81
2022/01/30 07:52:47;;;;;;;4.97;3.00;;;;;;;-1.94;68.95;97980.84;4996565;28;20559;-80
2022/01/30 07:55:17;;;;;;;3.22;2.47;;;;;;;-1.86;69.37;98002.38;5013543;28;20057;-80
2022/01/30 07:57:44;;;;;;;4.10;2.83;;;;;;;-1.83;69.28;97991.31;5013011;28;20060;-81
2022/01/30 08:00:13;;;;;;;4.63;3.10;;;;;;;-1.67;68.81;98007.91;5013925;28;20067;-84
2022/01/30 08:02:41;;;;;;;5.82;2.95;;;;;;;-1.63;68.85;98003.69;4996966;28;20484;-82
2022/01/30 08:05:09;;;;;;;5.28;3.20;;;;;;;-1.64;68.72;97997.72;5011483;28;20049;-81
2022/01/30 08:07:36;;;;;;;7.88;3.83;;;;;;;-1.58;68.74;97994.44;5014281;28;20100;-84
2022/01/30 08:10:04;;;;;;;5.10;3.22;;;;;;;-1.63;69.08;97985.78;5013502;28;20084;-81
2022/01/30 08:12:32;;;;;;;4.50;3.38;;;;;;;-1.55;68.98;97990.25;4996411;28;20058;-80
2022/01/30 08:15:00;;;;;;;6.43;3.80;;;;;;;-1.46;68.95;97990.44;4995663;28;20049;-82
2022/01/30 08:17:28;;;;;;;5.47;3.33;;;;;;;-1.50;68.93;97996.34;5016822;28;20045;-83
2022/01/30 08:19:55;;;;;;;7.05;3.55;;;;;;;-1.50;68.30;98001.44;5016687;28;20049;-83
2022/01/30 08:22:22;;;;;;;4.47;3.10;;;;;;;-1.57;68.62;97988.47;4983832;28;20045;-82
2022/01/30 08:24:49;;;;;;;5.80;3.30;;;;;;;-1.63;68.80;97986.66;5015273;28;20528;-82
2022/01/30 08:27:17;;;;;;;6.28;3.30;;;;;;;-1.62;68.85;97996.06;5015548;28;20378;-82
2022/01/30 08:29:44;;;;;;;6.28;3.55;;;;;;;-1.77;68.74;97980.38;4998237;28;20050;-84
2022/01/30 08:32:11;;;;;;;4.90;3.30;;;;;;;-1.72;68.91;98018.06;5019472;28;20096;-85
2022/01/30 08:34:39;;;;;;;5.82;3.13;;;;;;;-1.98;68.92;97963.72;5002293;28;20096;-85
2022/01/30 08:37:07;;;;;;;7.20;3.55;;;;;;;-1.73;68.85;97977.91;5004004;28;20064;-82
2022/01/30 08:39:34;;;;;;;6.90;3.60;;;;;;;-1.61;68.90;97987.56;5025337;28;20064;-79
2022/01/30 08:42:02;;;;;;;4.32;3.30;;;;;;;-1.58;68.63;98007.25;4986823;28;20421;-82
2022/01/30 08:44:29;;;;;;;6.32;3.42;;;;;;;-1.61;68.66;97994.34;5037601;28;20060;-82
2022/01/30 08:46:57;;;;;;;5.40;3.65;;;;;;;-1.76;68.78;97982.13;5021859;28;20058;-81
2022/01/30 08:49:24;;;;;;;3.75;2.28;;;;;;;-1.98;68.71;97971.41;5019592;28;20080;-80
2022/01/30 08:51:51;;;;;;;3.05;2.60;;;;;;;-1.91;68.83;97986.06;4980166;28;20394;-79
2022/01/30 08:54:18;;;;;;;3.65;2.35;;;;;;;-2.01;68.70;97978.13;5019055;28;20048;-81
2022/01/30 08:56:46;;;;;;;3.33;2.85;;;;;;;-2.08;68.58;97966.88;5017862;28;20505;-84
2022/01/30 08:59:13;;;;;;;2.75;2.25;;;;;;;-2.13;68.35;97956.56;5020353;28;20053;-84
2022/01/30 09:01:50;;;;;;;2.50;2.03;;;;;;;-2.09;68.40;97972.81;5023096;28;20117;-83
2022/01/30 09:04:27;;;;;;;2.70;1.80;;;;;;;-2.18;68.01;97981.16;4992804;28;20053;-83
2022/01/30 09:06:55;;;;;;;2.88;1.80;;;;;;;-2.31;68.75;97981.69;5008427;28;20073;-85
2022/01/30 09:09:23;;;;;;;1.65;1.50;;;;;;;-2.33;68.54;97988.47;5002708;28;20581;-83
2022/01/30 09:11:51;;;;;;;3.15;1.75;;;;;;;-2.37;68.92;97979.84;4989232;28;20061;-83
2022/01/30 09:14:27;;;;;;;1.98;1.60;;;;;;;-2.35;68.50;97970.50;5032583;28;20050;-84
2022/01/30 09:16:59;;;;;;;1.52;1.40;;;;;;;-2.49;68.21;97954.84;5027996;28;20049;-82
2022/01/30 09:19:38;;;;;;;2.95;1.80;;;;;;;-2.19;68.28;97982.00;5036711;28;20030;-81
2022/01/30 09:22:08;;;;;;;2.35;1.67;;;;;;;-2.15;67.65;97975.22;5016868;28;20164;-85
2022/01/30 09:24:36;;;;;;;2.97;1.83;;;;;;;-2.07;67.41;97974.56;5030782;28;20053;-83
2022/01/30 09:27:06;;;;;;;2.20;1.80;;;;;;;-1.93;67.14;97986.84;5002408;28;20057;-82
2022/01/30 09:29:35;;;;;;;1.73;1.50;;;;;;;-2.02;67.42;97967.03;4999776;28;20093;-84
2022/01/30 09:32:04;;;;;;;5.28;2.38;;;;;;;-1.90;66.95;97986.91;5003648;28;20069;-85
2022/01/30 09:34:33;;;;;;;3.20;1.95;;;;;;;-2.02;66.92;97982.38;5002483;28;20060;-84
2022/01/30 09:37:00;;;;;;;2.38;1.48;;;;;;;-2.18;67.33;97963.25;5000244;28;20050;-83
2022/01/30 09:39:28;;;;;;;1.83;1.63;;;;;;;-2.13;67.20;97943.75;4983881;28;20583;-82
2022/01/30 09:41:56;;;;;;;1.65;1.33;;;;;;;-1.92;66.98;97965.53;4999240;28;20053;-85
2022/01/30 09:44:23;;;;;;;2.00;1.50;;;;;;;-1.95;66.70;97975.72;5005000;28;20056;-84
2022/01/30 09:46:51;;;;;;;1.60;1.50;;;;;;;-2.00;66.42;97957.69;5018183;28;20058;-84
2022/01/30 09:49:23;;;;;;;1.83;1.52;;;;;;;-1.96;66.29;97963.72;5017575;28;20395;-85
2022/01/30 09:51:52;;;;;;;1.50;1.40;;;;;;;-1.77;67.09;97970.13;5024451;28;20060;-87
2022/01/30 09:54:23;;;;;;;4.65;2.67;;;;;;;-1.71;66.13;97986.47;5020408;28;20058;-88
2022/01/30 09:56:54;;;;;;;2.03;1.83;;;;;;;-1.74;65.99;97971.06;4986932;28;20054;-86
2022/01/30 09:59:22;;;;;;;3.30;2.00;;;;;;;-1.71;65.78;97953.19;5002479;28;20437;-86
2022/01/30 10:01:50;;;;;;;2.22;1.50;;;;;;;-2.09;65.54;97906.31;5024551;28;20060;-84
2022/01/30 10:04:18;;;;;;;2.97;1.75;;;;;;;-1.78;65.63;97950.50;5020076;28;20081;-82
2022/01/30 10:07:00;;;;;;;4.85;3.28;;;;;;;-1.62;65.65;97961.91;5009546;28;20165;-83
2022/01/30 10:09:32;;;;;;;6.57;3.83;;;;;;;-1.66;65.77;97950.75;5005263;28;20050;-84
2022/01/30 10:12:28;;;;;;;9.38;4.85;;;;;;;-1.69;65.47;97940.44;4984864;28;20148;-84
2022/01/30 10:15:07;;;;;;;6.35;3.70;;;;;;;-1.59;65.45;97947.50;4997895;28;20045;-84
2022/01/30 10:17:50;;;;;;;2.78;2.10;;;;;;;-1.54;65.03;97952.72;4999156;28;20042;-81
2022/01/30 10:20:39;;;;;;;4.00;2.50;;;;;;;-1.45;64.95;97943.50;4998002;28;20076;-85
2022/01/30 10:23:10;;;;;;;3.88;2.00;;;;;;;-1.38;65.05;97938.50;4997519;28;20116;-82
2022/01/30 10:25:48;;;;;;;2.70;1.88;;;;;;;-1.37;64.42;97935.13;5018827;28;20489;-82
2022/01/30 10:28:19;;;;;;;2.40;1.90;;;;;;;-1.28;64.13;97914.81;5007321;28;20108;-83
2022/01/30 10:30:47;;;;;;;3.55;1.90;;;;;;;-1.21;64.31;97931.16;4997188;28;20125;-81
2022/01/30 10:33:16;;;;;;;3.88;2.05;;;;;;;-1.02;63.83;97927.25;4997471;28;20054;-82
2022/01/30 10:35:54;;;;;;;2.00;1.80;;;;;;;-1.00;63.80;97912.75;5016014;28;20065;-83
2022/01/30 10:38:36;;;;;;;4.20;2.30;;;;;;;-0.78;63.74;97930.22;5006644;28;20115;-82
2022/01/30 10:41:17;;;;;;;2.50;1.90;;;;;;;-0.47;62.90;97910.25;5016203;28;20054;-85
2022/01/30 10:44:08;;;;;;;4.45;2.40;;;;;;;-0.56;62.54;97869.91;4999338;28;20108;-84
2022/01/30 10:46:45;;;;;;;2.67;2.10;;;;;;;-0.22;61.98;97903.75;5016465;28;20046;-83
2022/01/30 10:49:13;;;;;;;2.55;2.10;;;;;;;-0.11;61.66;97899.63;5015981;28;20049;-82
2022/01/30 10:51:52;;;;;;;3.58;2.20;;;;;;;-0.21;61.73;97890.09;5018184;28;20054;-83
2022/01/30 10:54:20;;;;;;;2.80;1.93;;;;;;;-0.16;61.62;97885.03;5018062;28;20080;-85
2022/01/30 10:57:07;;;;;;;3.10;2.13;;;;;;;-0.18;61.29;97881.59;5020289;28;20506;-83
2022/01/30 10:59:42;;;;;;;5.18;2.30;;;;;;;-0.43;61.39;97861.56;5002854;28;20164;-86
2022/01/30 11:02:21;;;;;;;3.13;2.08;;;;;;;-0.27;61.71;97888.31;5016104;28;20073;-84
2022/01/30 11:05:00;;;;;;;3.28;2.47;;;;;;;-0.14;61.59;97880.78;5015022;28;20100;-83
2022/01/30 11:07:30;;;;;;;4.28;2.70;;;;;;;-0.21;61.58;97879.84;4997836;28;20064;-84
2022/01/30 11:10:06;;;;;;;4.10;2.60;;;;;;;-0.31;61.85;97868.56;4997338;28;20052;-86
2022/01/30 11:12:41;;;;;;;4.00;2.40;;;;;;;-0.33;61.74;97856.56;5007163;28;20080;-84
2022/01/30 11:15:18;;;;;;;4.07;2.60;;;;;;;-0.28;61.32;97873.75;4981386;28;20058;-85
2022/01/30 11:17:47;;;;;;;5.28;2.60;;;;;;;-0.56;61.74;97822.88;4999116;28;20136;-83
2022/01/30 11:20:15;;;;;;;3.85;2.63;;;;;;;-0.63;61.72;97847.56;4998109;28;20433;-83
2022/01/30 11:22:46;;;;;;;4.10;2.72;;;;;;;-0.75;62.26;97847.38;4982100;28;20050;-83
2022/01/30 11:25:16;;;;;;;3.38;2.70;;;;;;;-0.97;62.30;97834.19;5015916;28;20108;-85
2022/01/30 11:27:46;;;;;;;3.65;2.55;;;;;;;-0.88;62.51;97854.03;5015951;28;20065;-84
2022/01/30 11:30:28;;;;;;;4.78;3.03;;;;;;;-0.93;62.04;97820.59;5000719;28;20516;-82
2022/01/30 11:32:56;;;;;;;4.28;3.08;;;;;;;-0.41;61.33;97864.13;4988961;28;20585;-81
2022/01/30 11:35:23;;;;;;;4.03;2.92;;;;;;;-0.25;60.45;97857.53;5003447;28;20568;-82
2022/01/30 11:37:51;;;;;;;3.92;3.22;;;;;;;-0.30;60.37;97820.66;5026805;28;20058;-84
2022/01/30 11:40:20;;;;;;;3.95;3.20;;;;;;;-0.08;59.80;97843.22;5019531;28;20083;-82
2022/01/30 11:42:49;;;;;;;4.82;3.33;;;;;;;-0.09;60.44;97836.34;4998874;28;20054;-84
2022/01/30 11:45:27;;;;;;;5.45;3.22;;;;;;;-0.08;60.21;97837.25;4999112;28;20497;-82
2022/01/30 11:48:11;;;;;;;4.32;3.13;;;;;;;-0.22;60.10;97839.59;5009796;28;20056;-84
2022/01/30 11:50:38;;;;;;;5.85;3.70;;;;;;;-0.30;60.52;97836.97;5004612;28;20057;-81
2022/01/30 11:53:10;;;;;;;7.20;3.50;;;;;;;-0.29;60.20;97833.53;4994636;28;20066;-87
2022/01/30 11:55:56;;;;;;;4.28;3.20;;;;;;;-0.24;60.42;97839.63;5015579;28;20049;-90
2022/01/30 11:58:33;;;;;;;4.22;3.10;;;;;;;-0.25;60.56;97832.75;5017037;28;20153;-87
2022/01/30 12:01:04;;;;;;;4.97;3.35;;;;;;;-0.42;60.76;97835.06;5018336;28;20050;-82
2022/01/30 12:03:37;;;;;;;4.45;3.40;;;;;;;-0.60;61.29;97832.25;5018577;28;20073;-84
2022/01/30 12:06:27;;;;;;;6.63;3.60;;;;;;;-0.69;61.46;97843.22;5020050;28;20060;-84
2022/01/30 12:09:19;;;;;;;6.53;3.20;;;;;;;-0.88;61.85;97820.69;5000694;28;20512;-81
2022/01/30 12:11:49;;;;;;;5.18;3.70;;;;;;;-0.86;61.73;97831.81;4982057;28;20050;-82
2022/01/30 12:14:20;;;;;;;6.82;3.63;;;;;;;-1.01;61.83;97835.00;4999190;28;20084;-84
2022/01/30 12:16:56;;;;;;;5.97;3.58;;;;;;;-1.12;62.57;97813.44;5015533;28;20120;-84
2022/01/30 12:19:45;;;;;;;5.78;4.10;;;;;;;-1.13;63.13;97821.97;5014606;28;20062;-84
2022/01/30 12:22:16;;;;;;;7.60;4.50;;;;;;;-1.18;62.55;97828.72;4998993;28;20068;-84
2022/01/30 12:24:46;;;;;;;8.10;3.85;;;;;;;-1.47;63.13;97806.00;5000833;28;20053;-86
2022/01/30 12:27:15;;;;;;;7.00;3.80;;;;;;;-1.30;63.12;97819.97;4974711;28;20042;-83
2022/01/30 12:29:52;;;;;;;5.20;3.13;;;;;;;-1.29;62.91;97831.09;4996426;28;20081;-84
2022/01/30 12:32:20;;;;;;;6.55;4.05;;;;;;;-1.30;63.54;97826.81;4997231;28;20057;-83
2022/01/30 12:34:54;;;;;;;8.48;4.15;;;;;;;-1.31;63.29;97825.94;4972948;28;20417;-84
2022/01/30 12:37:26;;;;;;;8.02;4.15;;;;;;;-1.32;63.15;97848.97;4998038;28;20058;-84
2022/01/30 12:40:10;;;;;;;;;;;;;;;;;;;;;
2022/01/30 12:42:44;;;;;;;5.70;3.58;;;;;;;-1.38;63.16;97842.03;5014841;28;20537;-85
2022/01/30 12:45:14;;;;;;;8.93;3.95;;;;;;;-1.42;63.56;97826.56;5016183;28;20058;-89
2022/01/30 12:47:53;;;;;;;8.65;4.45;;;;;;;-1.41;63.25;97823.19;5014086;28;20076;-87